createdAt,value
2019-05-05T00:03:51.610Z,1.80
2019-05-05T00:07:55.068Z,1.77
2019-05-05T00:16:36.045Z,1.62
2019-05-05T00:20:39.565Z,1.45
2019-05-05T00:24:44.391Z,1.90
2019-05-05T00:28:48.044Z,1.40
2019-05-05T00:32:51.488Z,1.42
2019-05-05T00:36:55.342Z,1.72
2019-05-05T00:40:58.861Z,1.60
2019-05-05T00:45:02.323Z,1.87
2019-05-05T00:49:05.783Z,1.50
2019-05-05T00:53:09.508Z,2.02
2019-05-05T00:57:14.853Z,1.80
2019-05-05T01:01:20.027Z,2.35
2019-05-05T01:05:25.369Z,1.40
2019-05-05T01:09:30.859Z,1.75
2019-05-05T01:17:39.159Z,1.92
2019-05-05T01:21:42.691Z,2.50
2019-05-05T01:25:48.646Z,1.87
2019-05-05T01:29:51.727Z,2.08
2019-05-05T01:34:12.235Z,1.57
2019-05-05T01:38:20.563Z,2.10
2019-05-05T01:42:24.832Z,2.02
2019-05-05T01:46:28.359Z,2.50
2019-05-05T01:50:31.827Z,1.80
2019-05-05T01:54:35.407Z,2.10
2019-05-05T01:58:39.126Z,2.05
2019-05-05T02:02:44.867Z,2.10
2019-05-05T02:06:48.802Z,1.92
2019-05-05T02:10:54.175Z,1.87
2019-05-05T02:19:00.087Z,2.15
2019-05-05T02:23:04.652Z,1.77
2019-05-05T02:27:08.589Z,1.70
2019-05-05T02:31:25.284Z,1.95
2019-05-05T02:35:27.804Z,1.70
2019-05-05T02:39:34.253Z,2.00
2019-05-05T02:43:38.074Z,2.40
2019-05-05T02:47:46.819Z,1.60
2019-05-05T02:51:50.740Z,1.47
2019-05-05T02:55:58.162Z,2.27
2019-05-05T03:00:19.978Z,2.15
2019-05-05T03:04:24.561Z,2.67
2019-05-05T03:08:29.629Z,1.90
2019-05-05T03:12:35.592Z,1.80
2019-05-05T03:16:40.130Z,2.47
2019-05-05T03:20:43.761Z,2.20
2019-05-05T03:24:47.475Z,2.30
2019-05-05T03:28:58.644Z,1.57
2019-05-05T03:33:05.433Z,2.20
2019-05-05T03:37:08.804Z,1.77
2019-05-05T03:41:14.039Z,2.00
2019-05-05T03:45:23.546Z,2.08
2019-05-05T03:49:27.383Z,1.90
2019-05-05T03:53:31.505Z,1.73
2019-05-05T03:57:35.207Z,2.57
2019-05-05T04:01:54.563Z,2.08
2019-05-05T04:05:59.647Z,2.30
2019-05-05T04:10:03.942Z,2.55
2019-05-05T04:14:08.378Z,2.42
2019-05-05T04:18:19.441Z,1.97
2019-05-05T04:22:23.774Z,1.77
2019-05-05T04:26:27.413Z,3.47
2019-05-05T04:30:50.265Z,2.67
2019-05-05T04:34:54.347Z,2.98
2019-05-05T04:38:58.044Z,2.70
2019-05-05T04:43:03.736Z,2.12
2019-05-05T04:47:24.182Z,2.63
2019-05-05T04:51:29.267Z,3.25
2019-05-05T04:55:33.762Z,2.98
2019-05-05T04:59:37.658Z,2.70
2019-05-05T05:03:58.915Z,2.87
2019-05-05T05:08:03.828Z,2.75
2019-05-05T05:12:07.756Z,2.58
2019-05-05T05:16:11.207Z,3.20
2019-05-05T05:20:15.282Z,3.35
2019-05-05T05:24:18.731Z,3.02
2019-05-05T05:28:23.673Z,2.80
2019-05-05T05:32:27.335Z,2.52
2019-05-05T05:36:30.779Z,3.50
2019-05-05T05:40:51.207Z,3.20
2019-05-05T05:44:56.303Z,3.47
2019-05-05T05:49:16.417Z,3.17
2019-05-05T05:53:19.950Z,3.52
2019-05-05T05:57:24.070Z,3.27
2019-05-05T06:01:27.610Z,3.20
2019-05-05T06:05:31.059Z,3.37
2019-05-05T06:09:34.671Z,3.23
2019-05-05T06:13:38.147Z,3.98
2019-05-05T06:17:43.387Z,3.33
2019-05-05T06:21:46.770Z,3.77
2019-05-05T06:25:50.228Z,3.90
2019-05-05T06:29:54.359Z,3.60
2019-05-05T06:33:57.996Z,3.08
2019-05-05T06:38:01.440Z,3.20
2019-05-05T06:42:06.519Z,3.80
2019-05-05T06:46:11.966Z,3.17
2019-05-05T06:50:15.398Z,3.37
2019-05-05T06:54:19.184Z,3.67
2019-05-05T06:58:24.157Z,3.45
2019-05-05T07:02:28.145Z,3.10
2019-05-05T07:06:31.585Z,3.17
2019-05-05T07:10:35.380Z,3.08
2019-05-05T07:14:38.837Z,2.85
2019-05-05T07:18:44.451Z,3.40
2019-05-05T07:22:58.951Z,3.22
2019-05-05T07:26:54.172Z,3.47
2019-05-05T07:30:57.901Z,2.83
2019-05-05T07:35:04.107Z,3.02
2019-05-05T07:39:09.156Z,2.62
2019-05-05T07:43:14.510Z,2.77
2019-05-05T07:47:17.775Z,2.90
2019-05-05T07:51:21.252Z,2.83
2019-05-05T07:55:24.709Z,2.58
2019-05-05T07:59:28.158Z,2.20
2019-05-05T08:03:33.747Z,2.37
2019-05-05T08:07:37.083Z,1.77
2019-05-05T08:11:40.810Z,1.72
2019-05-05T08:15:56.691Z,1.50
2019-05-05T08:19:55.223Z,1.42
2019-05-05T08:24:00.647Z,1.70
2019-05-05T08:28:08.503Z,1.35
2019-05-05T08:32:19.538Z,1.75
2019-05-05T08:36:23.542Z,1.30
2019-05-05T08:40:27.084Z,1.57
2019-05-05T08:44:30.881Z,1.75
2019-05-05T08:48:34.391Z,1.60
2019-05-05T08:52:37.849Z,1.40
2019-05-05T08:56:41.320Z,1.77
2019-05-05T09:00:45.109Z,1.25
2019-05-05T09:04:48.566Z,1.25
2019-05-05T09:08:52.018Z,1.15
2019-05-05T09:12:55.488Z,1.00
2019-05-05T09:17:00.219Z,1.05
2019-05-05T09:21:04.485Z,0.98
2019-05-05T09:25:10.762Z,1.30
2019-05-05T09:29:32.170Z,0.98
2019-05-05T09:33:35.626Z,1.20
2019-05-05T09:37:39.210Z,0.88
2019-05-05T09:41:44.474Z,1.30
2019-05-05T09:45:47.849Z,1.57
2019-05-05T09:49:51.572Z,1.20
2019-05-05T09:53:55.295Z,1.20
2019-05-05T09:57:58.734Z,1.12
2019-05-05T10:02:04.266Z,1.10
2019-05-05T10:06:07.367Z,1.13
2019-05-05T10:10:11.155Z,1.10
2019-05-05T10:14:14.612Z,0.57
2019-05-05T10:18:18.396Z,0.70
2019-05-05T10:22:23.779Z,1.12
2019-05-05T10:26:27.035Z,0.90
2019-05-05T10:30:30.864Z,0.80
2019-05-05T10:34:34.465Z,0.78
2019-05-05T10:38:39.834Z,0.88
2019-05-05T10:42:53.886Z,0.70
2019-05-05T10:46:57.204Z,0.98
2019-05-05T10:51:00.666Z,0.70
2019-05-05T10:55:06.056Z,0.75
2019-05-05T10:59:09.602Z,0.80
2019-05-05T11:03:14.822Z,0.80
2019-05-05T11:07:19.615Z,0.87
2019-05-05T11:11:23.906Z,1.10
2019-05-05T11:15:27.506Z,0.82
2019-05-05T11:19:30.970Z,0.68
2019-05-05T11:23:34.809Z,0.95
2019-05-05T11:27:38.270Z,0.93
2019-05-05T11:31:41.730Z,1.02
2019-05-05T11:36:04.844Z,0.88
2019-05-05T11:40:08.430Z,0.85
2019-05-05T11:44:11.955Z,1.07
2019-05-05T11:48:15.419Z,1.05
2019-05-05T11:52:18.878Z,0.90
2019-05-05T11:56:22.623Z,0.90
2019-05-05T12:00:26.068Z,0.68
2019-05-05T12:04:29.843Z,1.00
2019-05-05T12:08:34.514Z,1.12
2019-05-05T12:12:38.351Z,0.97
2019-05-05T12:16:43.861Z,1.15
2019-05-05T12:20:47.214Z,0.98
2019-05-05T12:24:51.043Z,1.40
2019-05-05T12:28:56.138Z,1.20
2019-05-05T12:32:59.586Z,1.33
2019-05-05T12:37:05.177Z,1.07
2019-05-05T12:41:08.232Z,1.15
2019-05-05T12:45:14.046Z,1.25
2019-05-05T12:49:17.505Z,1.70
2019-05-05T12:53:21.258Z,1.30
2019-05-05T12:57:24.972Z,1.30
2019-05-05T13:01:30.422Z,1.30
2019-05-05T13:05:35.770Z,1.42
2019-05-05T13:09:39.238Z,1.10
2019-05-05T13:13:43.991Z,1.12
2019-05-05T13:17:47.720Z,1.00
2019-05-05T13:21:54.234Z,1.62
2019-05-05T13:26:04.379Z,2.72
2019-05-05T13:30:09.315Z,2.52
2019-05-05T13:34:13.664Z,2.23
2019-05-05T13:38:17.334Z,2.55
2019-05-05T13:42:20.782Z,2.40
2019-05-05T13:46:28.563Z,2.70
2019-05-05T13:50:36.333Z,3.17
2019-05-05T13:54:40.098Z,2.55
2019-05-05T13:58:43.806Z,2.83
2019-05-05T14:02:47.392Z,2.62
2019-05-05T14:06:51.381Z,2.17
2019-05-05T14:10:54.840Z,2.90
2019-05-05T14:14:58.673Z,2.02
2019-05-05T14:19:04.255Z,1.98
2019-05-05T14:23:07.628Z,3.22
2019-05-05T14:27:11.131Z,3.02
2019-05-05T14:31:16.206Z,2.87
2019-05-05T14:35:24.395Z,3.35
2019-05-05T14:39:27.866Z,3.20
2019-05-05T14:43:31.307Z,2.65
2019-05-05T14:47:34.773Z,2.50
2019-05-05T14:51:38.216Z,3.15
2019-05-05T14:55:41.688Z,3.10
2019-05-05T14:59:45.147Z,2.47
2019-05-05T15:03:48.717Z,2.90
2019-05-05T15:07:56.785Z,2.57
2019-05-05T15:12:05.100Z,2.60
2019-05-05T15:16:10.075Z,2.60
2019-05-05T15:20:15.367Z,2.87
2019-05-05T15:24:18.831Z,2.87
2019-05-05T15:28:24.307Z,3.33
2019-05-05T15:32:27.486Z,2.83
2019-05-05T15:36:30.918Z,2.07
2019-05-05T15:40:34.674Z,2.47
2019-05-05T15:44:38.159Z,2.30
2019-05-05T15:48:41.610Z,2.08
2019-05-05T15:52:46.242Z,2.58
2019-05-05T15:57:01.846Z,2.17
2019-05-05T16:00:54.874Z,2.57
2019-05-05T16:04:58.341Z,2.33
2019-05-05T16:09:04.110Z,2.60
2019-05-05T16:13:07.118Z,1.73
2019-05-05T16:17:17.915Z,2.22
2019-05-05T16:21:26.311Z,2.30
2019-05-05T16:25:30.267Z,2.17
2019-05-05T16:29:33.738Z,2.02
2019-05-05T16:33:37.240Z,2.20
2019-05-05T16:37:40.700Z,3.00
2019-05-05T16:41:44.425Z,2.15
2019-05-05T16:45:47.883Z,2.27
2019-05-05T16:49:51.322Z,2.12
2019-05-05T16:53:56.559Z,1.98
2019-05-05T16:57:59.951Z,1.90
2019-05-05T17:02:04.810Z,2.85
2019-05-05T17:06:08.445Z,2.45
2019-05-05T17:10:13.854Z,3.30
2019-05-05T17:14:23.400Z,2.87
2019-05-05T17:18:33.603Z,2.60
2019-05-05T17:22:38.667Z,2.33
2019-05-05T17:26:43.894Z,2.00
2019-05-05T17:30:47.529Z,3.00
2019-05-05T17:34:50.975Z,2.80
2019-05-05T17:38:54.531Z,2.37
2019-05-05T17:43:21.860Z,2.33
2019-05-05T17:47:27.694Z,2.80
2019-05-05T17:51:48.314Z,2.22
2019-05-05T17:55:53.807Z,2.45
2019-05-05T17:59:57.259Z,2.15
2019-05-05T18:04:00.813Z,2.40
2019-05-05T18:08:04.535Z,2.77
2019-05-05T18:12:09.991Z,2.40
2019-05-05T18:16:15.546Z,2.90
2019-05-05T18:20:19.913Z,2.27
2019-05-05T18:24:24.301Z,2.83
2019-05-05T18:28:27.921Z,2.65
2019-05-05T18:32:31.729Z,2.50
2019-05-05T18:36:35.178Z,3.00
2019-05-05T18:40:38.645Z,2.55
2019-05-05T18:44:46.520Z,2.50
2019-05-05T18:48:50.027Z,2.65
2019-05-05T18:52:53.899Z,3.33
2019-05-05T18:56:57.906Z,3.45
2019-05-05T19:01:09.207Z,3.33
2019-05-05T19:05:34.431Z,2.92
2019-05-05T19:09:50.356Z,2.62
2019-05-05T19:13:44.709Z,2.80
2019-05-05T19:17:48.467Z,3.03
2019-05-05T19:21:54.709Z,2.08
2019-05-05T19:25:58.607Z,2.67
2019-05-05T19:30:04.326Z,2.60
2019-05-05T19:34:07.663Z,2.90
2019-05-05T19:38:11.415Z,2.80
2019-05-05T19:42:15.503Z,2.40
2019-05-05T19:46:19.268Z,2.50
2019-05-05T19:50:30.455Z,2.65
2019-05-05T19:54:36.269Z,2.65
2019-05-05T19:58:39.571Z,2.80
2019-05-05T20:02:43.793Z,3.22
2019-05-05T20:06:47.599Z,2.80
2019-05-05T20:10:51.058Z,3.02
2019-05-05T20:14:54.783Z,3.30
2019-05-05T20:18:58.624Z,2.70
2019-05-05T20:23:04.055Z,3.15
2019-05-05T20:27:07.514Z,3.60
2019-05-05T20:31:11.225Z,3.50
2019-05-05T20:35:16.389Z,3.52
2019-05-05T20:43:22.900Z,3.22
2019-05-05T20:47:26.395Z,3.08
2019-05-05T20:51:29.847Z,3.20
2019-05-05T20:55:33.950Z,3.70
2019-05-05T20:59:38.282Z,3.80
2019-05-05T21:03:42.072Z,3.77
2019-05-05T21:07:45.869Z,2.70
2019-05-05T21:11:49.312Z,3.87
2019-05-05T21:15:53.908Z,3.58
2019-05-05T21:19:57.526Z,3.33
2019-05-05T21:24:04.141Z,3.08
2019-05-05T21:28:08.019Z,3.02
2019-05-05T21:32:13.757Z,3.60
2019-05-05T21:36:17.174Z,3.65
2019-05-05T21:40:21.587Z,3.67
2019-05-05T21:44:25.023Z,2.92
2019-05-05T21:48:28.739Z,3.10
2019-05-05T21:52:34.573Z,3.45
2019-05-05T21:56:56.084Z,3.15
2019-05-05T22:01:10.364Z,2.85
2019-05-05T22:05:14.634Z,2.45
2019-05-05T22:09:18.641Z,3.00
2019-05-05T22:13:22.082Z,2.35
2019-05-05T22:17:25.602Z,2.67
2019-05-05T22:21:36.398Z,3.20
2019-05-05T22:25:39.836Z,2.98
2019-05-05T22:29:44.659Z,3.20
2019-05-05T22:33:48.311Z,2.92
2019-05-05T22:37:51.778Z,2.70
2019-05-05T22:41:55.225Z,3.58
2019-05-05T22:45:59.210Z,2.72
2019-05-05T22:50:04.445Z,3.72
2019-05-05T22:54:10.258Z,3.52
2019-05-05T23:02:19.515Z,4.75
2019-05-05T23:06:24.718Z,4.37
2019-05-05T23:10:28.199Z,3.87
2019-05-05T23:14:31.659Z,4.12
2019-05-05T23:18:35.116Z,3.47
2019-05-05T23:22:49.006Z,3.70
2019-05-05T23:26:54.554Z,4.08
2019-05-05T23:30:58.242Z,3.85
2019-05-05T23:35:02.046Z,4.58
2019-05-05T23:39:06.876Z,4.17
2019-05-05T23:43:10.310Z,3.97
2019-05-05T23:47:14.028Z,4.20
2019-05-05T23:51:17.489Z,4.22
2019-05-05T23:55:21.004Z,4.78
2019-05-05T23:59:24.810Z,3.80
